Castro Valley, CA

1:36 PM PDT on April 25, 2017 (GMT -0700)
| | Change Station

Elev -9999 ft 0.00 °N, 0.00 °E | Updated 60 seconds ago

Mostly Cloudy
Mostly Cloudy
°F
Feels Like °F
N
Wind Variable Wind from North
Gusts mph

Today
High -- | Low -- °F
--% Chance of Precip.
Yesterday
High -- | Low -- °F
Precip. -- in
Pressure 30.14 in
Visibility 10.0 miles
Clouds Few 7000 ft
Scattered Clouds 9000 ft
Mostly Cloudy 18000 ft
Dew Point Not available.
Humidity Not available.
Rainfall --
Snow Depth Not available.
6:19 AM 7:53 PM
Waning Crescent, 1% visible
METAR KHWD 251954Z COR 27011KT 10SM FEW070 SCT090 BKN180 17/08 A3010 RMK AO2 SLP204 T01720078
Pressure 30.14 in
Visibility 10.0 miles
Clouds Few 7000 ft
Scattered Clouds 9000 ft
Mostly Cloudy 18000 ft
Dew Point Not available.
Humidity Not available.
Rainfall --
Snow Depth Not available.
6:19 AM 7:53 PM
Waning Crescent, 1% visible
METAR KHWD 251954Z COR 27011KT 10SM FEW070 SCT090 BKN180 17/08 A3010 RMK AO2 SLP204 T01720078

Get Severe Weather Alerts

Thanks for signing up!

Be on the lookout for a verification email in your inbox.

You'll start receiving the daily forecast at 8 AM.

×

10-Day Weather Forecast

Almanac

Astronomy

Apr. 25, 2017 Rise Set
Actual Time
Civil Twilight
Nautical Twilight
Astronomical Twilight
Moon
Length of Visible Light
Length of Day
Tomorrow will be .
, % of the Moon is Illuminated

Today's Extremes

State Highs State Lows

Community

WunderPhotos

WunderBlog® & News

Nearby

Air Quality

  Air Quality AQ Index Pollutant
Not available.

Snow Depth

Station Depth Elevation

Earthquake Activity

City Distance Mag. Time & Date
Minimum magnitude displayed is 2.5.

Coastal Water Temperatures

Place Temperature

Stations

Nearby Weather Stations

Station Location Temp. Windchill Dew Point Humidity Wind Precip. Elev Updated Type
                   

Watches & Warnings

There are currently no watches in effect.